Terminal Aerodrome Forecast
Issued by NWS

Home | Current Version | Previous Version | Text Only | Print | Product List | Glossary On
Versions: 1 2 3 4 5 6 7 8 9 10 11 12
000
FTUS44 KTSA 270500
TAFRVS
TAF
KRVS 270533Z 2706/2806 34004KT P6SM SCT100
     FM271200 00000KT P6SM BKN100
     FM272100 16006KT P6SM SCT150=

USA.gov is the U.S. government's official web portal to all federal, state and local government web resources and services.